Time;durP1;ratioP1;P1;durP2;ratioP2;P2;SDS_P1;SDS_P2;PMS_P1;PMS_P2;Temp;Humidity;BMP_temperature;BMP_pressure;BME280_temperature;BME280_humidity;BME280_pressure;Samples;Min_cycle;Max_cycle;Signal;HPM_P1;HPM_P2
2024/04/14 00:02:22;;;;;;;16.40;3.30;;;6.50;99.90;;;;;;1844992;77;25259;-88
2024/04/14 00:05:10;;;;;;;21.10;3.03;;;6.40;99.90;;;;;;1834058;77;25318;-88
2024/04/14 00:07:59;;;;;;;18.37;3.23;;;6.50;99.90;;;;;;1844164;77;25189;-89
2024/04/14 00:10:48;;;;;;;22.90;2.90;;;6.50;99.90;;;;;;1844234;77;25236;-88
2024/04/14 00:13:37;;;;;;;12.77;3.17;;;6.40;99.90;;;;;;1837712;77;25318;-88
2024/04/14 00:16:26;;;;;;;24.30;3.00;;;6.40;99.90;;;;;;1840855;77;25244;-88
2024/04/14 00:22:06;;;;;;;16.93;2.70;;;6.40;99.90;;;;;;2054161;69;28365;-88
2024/04/14 00:24:55;;;;;;;11.83;2.87;;;6.40;99.90;;;;;;1993838;71;25228;-87
2024/04/14 00:27:44;;;;;;;14.03;2.43;;;6.40;99.90;;;;;;2011796;71;25196;-88
2024/04/14 00:30:33;;;;;;;13.70;2.90;;;6.20;99.90;;;;;;2015904;71;25190;-88
2024/04/14 00:33:21;;;;;;;20.17;3.10;;;6.20;99.90;;;;;;2014228;71;25753;-87
2024/04/14 00:36:11;;;;;;;17.23;2.87;;;6.20;99.90;;;;;;2004070;71;25799;-90
2024/04/14 00:39:00;;;;;;;19.80;3.03;;;6.20;99.90;;;;;;2011144;70;25220;-89
2024/04/14 00:41:49;;;;;;;23.13;3.07;;;6.20;99.90;;;;;;2000352;71;25611;-89
2024/04/14 00:44:38;;;;;;;14.53;2.70;;;6.20;99.90;;;;;;2017276;70;25258;-90
2024/04/14 00:47:27;;;;;;;12.83;2.73;;;6.30;99.90;;;;;;1992053;71;25210;-89
2024/04/14 00:50:16;;;;;;;15.93;2.80;;;6.20;99.90;;;;;;1989367;71;25280;-89
2024/04/14 00:53:05;;;;;;;10.33;2.50;;;6.20;99.90;;;;;;2003766;71;25222;-89
2024/04/14 00:55:54;;;;;;;9.07;1.60;;;6.20;99.90;;;;;;1966513;72;25254;-89
2024/04/14 01:01:30;;;;;;;8.53;1.77;;;6.30;99.90;;;;;;1940799;72;27556;-88
2024/04/14 01:07:03;;;;;;;5.60;1.97;;;6.40;99.90;;;;;;1926779;72;27050;-88
2024/04/14 01:09:52;;;;;;;5.90;1.57;;;6.40;99.90;;;;;;1898805;74;25207;-89
2024/04/14 01:12:43;;;;;;;10.93;2.27;;;6.50;99.90;;;;;;1937376;73;25837;-89
2024/04/14 01:15:32;;;;;;;10.20;2.17;;;6.50;99.90;;;;;;1873022;76;25332;-88
2024/04/14 01:18:20;;;;;;;7.00;2.13;;;6.50;99.90;;;;;;1870677;76;25323;-88
2024/04/14 01:21:09;;;;;;;6.93;2.60;;;6.60;99.90;;;;;;1914957;73;25215;-89
2024/04/14 01:23:57;;;;;;;7.83;2.30;;;6.60;99.90;;;;;;1909640;73;25208;-88
2024/04/14 01:26:46;;;;;;;7.90;2.87;;;6.60;99.90;;;;;;1903669;73;25255;-89
2024/04/14 01:29:35;;;;;;;7.57;3.30;;;6.70;99.90;;;;;;1867837;76;25723;-88
2024/04/14 01:32:23;;;;;;;9.00;2.50;;;6.70;99.90;;;;;;1821880;78;25323;-88
2024/04/14 01:35:12;;;;;;;7.33;2.20;;;6.60;99.90;;;;;;1846756;76;25244;-88
2024/04/14 01:38:00;;;;;;;8.77;1.90;;;6.40;99.90;;;;;;1867114;76;25722;-88
2024/04/14 01:43:29;;;;;;;14.30;2.80;;;6.10;99.90;;;;;;1921415;72;27075;-89
2024/04/14 01:48:58;;;;;;;7.87;2.43;;;5.80;99.90;;;;;;1957833;72;26997;-88
2024/04/14 01:51:47;;;;;;;9.73;3.10;;;5.80;99.90;;;;;;1951586;72;25263;-87
2024/04/14 01:54:35;;;;;;;4.47;2.53;;;5.90;99.90;;;;;;1943422;73;25261;-87
2024/04/14 01:57:24;;;;;;;4.53;2.33;;;6.00;99.90;;;;;;1933462;73;26497;-88
2024/04/14 02:02:57;;;;;;;5.63;2.83;;;6.10;99.90;;;;;;1932711;72;27377;-89
2024/04/14 02:05:46;;;;;;;4.67;2.20;;;6.30;99.90;;;;;;1910243;73;25262;-88
2024/04/14 02:11:18;;;;;;;3.53;1.90;;;6.40;99.90;;;;;;1952552;72;27076;-88
2024/04/14 02:14:07;;;;;;;9.23;2.73;;;6.30;99.90;;;;;;1870890;76;25571;-88
2024/04/14 02:16:56;;;;;;;2.70;2.03;;;6.20;99.90;;;;;;1935890;73;25244;-88
2024/04/14 02:22:26;;;;;;;9.83;3.40;;;6.10;99.90;;;;;;1934048;72;27545;-88
2024/04/14 02:25:15;;;;;;;7.83;3.50;;;6.10;99.90;;;;;;1915922;73;25238;-88
2024/04/14 02:28:05;;;;;;;11.67;3.97;;;6.10;99.90;;;;;;1859809;76;25280;-88
2024/04/14 02:30:53;;;;;;;7.73;4.13;;;6.10;99.90;;;;;;1846293;76;25332;-88
2024/04/14 02:33:42;;;;;;;11.03;4.70;;;6.10;99.90;;;;;;1832592;77;25312;-88
2024/04/14 02:36:30;;;;;;;10.33;4.37;;;6.10;99.90;;;;;;1874369;76;25308;-87
2024/04/14 02:39:20;;;;;;;14.00;4.77;;;6.00;99.90;;;;;;1866769;76;25580;-88
2024/04/14 02:42:09;;;;;;;14.83;5.80;;;6.10;99.90;;;;;;1906856;75;25271;-88
2024/04/14 02:44:58;;;;;;;15.83;6.30;;;6.10;99.90;;;;;;1871844;76;25319;-88
2024/04/14 02:47:46;;;;;;;14.90;6.17;;;6.10;99.90;;;;;;1833079;76;25652;-88
2024/04/14 02:53:20;;;;;;;13.17;6.53;;;6.00;99.90;;;;;;1959466;72;27544;-88
2024/04/14 02:58:54;;;;;;;15.50;6.33;;;6.10;99.90;;;;;;1939598;72;27595;-88
2024/04/14 03:01:42;;;;;;;16.30;6.70;;;6.00;99.90;;;;;;1883423;75;25237;-89
2024/04/14 03:07:24;;;;;;;13.00;4.57;;;6.00;99.90;;;;;;1956395;71;26956;-89
2024/04/14 03:10:13;;;;;;;18.13;5.03;;;5.90;99.90;;;;;;1918011;73;25282;-88
2024/04/14 03:13:02;;;;;;;8.30;4.67;;;5.90;99.90;;;;;;1931117;73;25291;-88
2024/04/14 03:15:51;;;;;;;7.97;4.33;;;5.90;99.90;;;;;;1956693;72;25231;-88
2024/04/14 03:18:41;;;;;;;9.07;4.13;;;5.90;99.90;;;;;;1948560;72;25848;-88
2024/04/14 03:21:30;;;;;;;10.90;4.40;;;5.80;99.90;;;;;;1961338;72;25242;-89
2024/04/14 03:24:18;;;;;;;8.60;3.70;;;5.80;99.90;;;;;;1942642;72;25229;-88
2024/04/14 03:27:07;;;;;;;8.40;3.80;;;5.80;99.90;;;;;;1879632;75;25241;-87
2024/04/14 03:29:56;;;;;;;12.07;4.07;;;5.90;99.90;;;;;;1881450;74;25241;-87
2024/04/14 03:32:44;;;;;;;13.57;3.53;;;5.80;99.90;;;;;;1920275;74;25321;-87
2024/04/14 03:35:33;;;;;;;8.83;3.20;;;5.90;99.90;;;;;;1893524;75;25797;-87
2024/04/14 03:38:22;;;;;;;9.57;2.73;;;5.90;99.90;;;;;;1880204;75;25222;-88
2024/04/14 03:41:11;;;;;;;11.37;3.07;;;5.90;99.90;;;;;;1884844;75;25231;-88
2024/04/14 03:43:59;;;;;;;9.83;3.63;;;5.80;99.90;;;;;;1876594;75;25506;-89
2024/04/14 03:49:34;;;;;;;11.37;2.50;;;5.70;99.90;;;;;;1951571;72;26853;-88
2024/04/14 03:52:22;;;;;;;12.43;2.57;;;5.80;99.90;;;;;;1936640;73;25254;-89
2024/04/14 03:55:11;;;;;;;9.47;1.97;;;5.80;99.90;;;;;;1908118;75;25293;-89
2024/04/14 03:58:00;;;;;;;17.17;2.63;;;5.70;99.90;;;;;;1922085;73;25283;-89
2024/04/14 04:00:48;;;;;;;11.93;2.87;;;5.60;99.90;;;;;;1915934;74;25222;-89
2024/04/14 04:03:37;;;;;;;7.67;2.30;;;5.50;99.90;;;;;;1924879;73;25333;-89
2024/04/14 04:06:25;;;;;;;11.23;2.20;;;5.40;99.90;;;;;;1871500;76;25246;-89
2024/04/14 04:09:15;;;;;;;7.20;2.07;;;5.40;99.90;;;;;;1864705;75;25194;-89
2024/04/14 04:12:03;;;;;;;10.07;2.03;;;5.50;99.90;;;;;;1877667;75;25641;-87
2024/04/14 04:14:53;;;;;;;13.60;2.23;;;5.50;99.90;;;;;;1895426;75;25336;-87
2024/04/14 04:17:42;;;;;;;14.03;2.40;;;5.50;99.90;;;;;;1859983;75;25809;-87
2024/04/14 04:20:31;;;;;;;4.30;1.20;;;5.60;99.90;;;;;;1852775;76;25308;-88
2024/04/14 04:23:19;;;;;;;7.17;1.60;;;5.60;99.90;;;;;;1887216;75;25247;-88
2024/04/14 04:28:48;;;;;;;5.10;1.60;;;5.80;99.90;;;;;;1952507;72;27534;-88
2024/04/14 04:34:19;;;;;;;6.57;1.70;;;5.80;99.90;;;;;;1949606;72;27041;-88
2024/04/14 04:37:08;;;;;;;3.57;1.20;;;5.80;99.90;;;;;;1878506;76;25222;-88
2024/04/14 04:39:56;;;;;;;5.90;1.57;;;5.70;99.90;;;;;;1874005;76;25249;-87
2024/04/14 04:42:44;;;;;;;7.93;1.53;;;5.70;99.90;;;;;;1910205;74;25278;-87
2024/04/14 04:45:33;;;;;;;6.67;1.20;;;5.70;99.90;;;;;;1909845;75;26473;-88
2024/04/14 04:48:22;;;;;;;7.03;1.70;;;5.70;99.90;;;;;;1864991;76;25333;-88
2024/04/14 04:51:11;;;;;;;6.10;1.30;;;5.70;99.90;;;;;;1816014;78;25239;-88
2024/04/14 04:53:59;;;;;;;11.83;1.60;;;5.70;99.90;;;;;;1900511;73;25722;-90
2024/04/14 04:56:48;;;;;;;9.70;1.53;;;5.80;99.90;;;;;;1896392;75;25222;-88
2024/04/14 04:59:37;;;;;;;7.23;1.17;;;5.80;99.90;;;;;;1889472;75;25728;-87
2024/04/14 05:02:25;;;;;;;9.23;1.23;;;5.80;99.90;;;;;;1883593;75;25413;-88
2024/04/14 05:07:58;;;;;;;4.83;1.37;;;5.70;99.90;;;;;;1941321;72;27136;-88
2024/04/14 05:13:31;;;;;;;4.23;1.30;;;5.80;99.90;;;;;;1940405;74;27677;-89
2024/04/14 05:16:20;;;;;;;6.90;1.13;;;5.80;99.90;;;;;;1913933;75;25223;-88
2024/04/14 05:19:08;;;;;;;7.50;1.20;;;5.80;99.90;;;;;;1883499;76;25305;-89
2024/04/14 05:21:57;;;;;;;5.47;0.93;;;5.80;99.90;;;;;;1909387;74;25219;-88
2024/04/14 05:24:45;;;;;;;10.13;1.20;;;5.90;99.90;;;;;;1891041;75;25227;-88
2024/04/14 05:27:34;;;;;;;8.00;1.10;;;5.90;99.90;;;;;;1893504;75;25269;-88
2024/04/14 05:30:22;;;;;;;5.97;1.20;;;5.90;99.90;;;;;;1903855;75;25252;-88
2024/04/14 05:33:11;;;;;;;3.53;1.00;;;5.90;99.90;;;;;;1906560;75;25301;-88
2024/04/14 05:38:39;;;;;;;6.40;1.23;;;5.90;99.90;;;;;;1949703;72;26712;-88
2024/04/14 05:41:30;;;;;;;5.03;1.20;;;5.90;99.90;;;;;;1904040;75;25216;-88
2024/04/14 05:47:03;;;;;;;4.97;1.10;;;6.00;99.90;;;;;;2036770;69;27020;-88
2024/04/14 05:52:43;;;;;;;4.23;0.90;;;5.90;99.90;;;;;;2033147;69;26937;-89
2024/04/14 05:55:32;;;;;;;4.57;0.73;;;6.00;99.90;;;;;;1973447;72;25769;-89
2024/04/14 05:58:21;;;;;;;4.97;0.73;;;6.00;99.90;;;;;;1957975;73;25527;-90
2024/04/14 06:01:09;;;;;;;4.47;0.90;;;6.00;99.90;;;;;;1991546;72;25165;-89
2024/04/14 06:06:53;;;;;;;5.27;1.20;;;5.90;99.90;;;;;;1969959;72;26838;-88
2024/04/14 06:09:41;;;;;;;3.77;0.90;;;5.90;99.90;;;;;;1917174;73;25219;-88
2024/04/14 06:12:30;;;;;;;2.33;0.60;;;5.90;99.90;;;;;;1907478;75;25212;-88
2024/04/14 06:15:19;;;;;;;3.40;0.80;;;6.00;99.90;;;;;;1891992;75;25309;-88
2024/04/14 06:20:51;;;;;;;2.80;0.90;;;6.10;99.90;;;;;;1960421;72;27483;-88
2024/04/14 06:23:40;;;;;;;3.47;0.60;;;6.00;99.90;;;;;;1927339;73;25287;-88
2024/04/14 06:29:09;;;;;;;3.17;0.20;;;6.10;99.90;;;;;;1942377;72;27074;-89
2024/04/14 06:31:57;;;;;;;2.80;1.00;;;6.20;99.90;;;;;;1907836;73;25285;-88
2024/04/14 06:34:46;;;;;;;7.50;0.97;;;6.20;99.90;;;;;;1916490;75;25227;-88
2024/04/14 06:37:36;;;;;;;2.97;0.67;;;6.30;99.90;;;;;;1933486;73;25253;-87
2024/04/14 06:40:24;;;;;;;1.93;0.90;;;6.40;99.90;;;;;;1917869;73;25268;-87
2024/04/14 06:43:15;;;;;;;3.40;0.70;;;6.50;99.90;;;;;;1921436;73;25161;-88
2024/04/14 06:46:04;;;;;;;2.27;0.60;;;6.60;99.90;;;;;;1942028;73;25214;-87
2024/04/14 06:48:53;;;;;;;5.53;0.80;;;6.60;99.90;;;;;;1917524;73;25672;-87
2024/04/14 06:51:41;;;;;;;0.50;0.50;;;6.50;99.90;;;;;;1922549;73;25744;-88
2024/04/14 06:54:30;;;;;;;3.07;0.90;;;6.60;99.90;;;;;;1904903;73;25301;-87
2024/04/14 06:57:18;;;;;;;3.77;0.70;;;6.60;99.90;;;;;;1913661;73;25256;-88
2024/04/14 07:00:10;;;;;;;2.20;0.70;;;6.60;99.90;;;;;;1884035;73;25220;-87
2024/04/14 07:02:59;;;;;;;1.83;0.60;;;6.60;99.90;;;;;;1894922;73;25189;-88
2024/04/14 07:05:47;;;;;;;3.97;0.90;;;6.90;99.90;;;;;;1903014;73;25781;-88
2024/04/14 07:11:22;;;;;;;1.80;0.70;;;7.60;99.90;;;;;;1956086;72;27032;-88
2024/04/14 07:16:51;;;;;;;5.47;0.63;;;7.90;99.90;;;;;;1954081;72;27081;-88
2024/04/14 07:19:40;;;;;;;2.87;0.63;;;7.80;99.90;;;;;;1918632;73;25200;-88
2024/04/14 07:22:28;;;;;;;1.07;0.60;;;7.80;99.90;;;;;;1892340;75;25691;-87
2024/04/14 07:25:17;;;;;;;4.23;0.90;;;8.10;99.90;;;;;;1873247;76;25229;-88
2024/04/14 07:28:07;;;;;;;0.67;0.33;;;8.20;99.90;;;;;;1855847;76;25287;-87
2024/04/14 07:30:55;;;;;;;3.10;0.70;;;8.30;99.90;;;;;;1864738;76;25247;-87
2024/04/14 07:36:24;;;;;;;5.20;0.60;;;7.80;99.90;;;;;;1955750;72;26594;-88
2024/04/14 07:42:00;;;;;;;2.80;0.60;;;7.90;99.90;;;;;;1966410;72;26968;-87
2024/04/14 07:44:48;;;;;;;1.33;0.87;;;8.00;99.90;;;;;;1949103;72;25251;-87
2024/04/14 07:50:17;;;;;;;1.93;0.60;;;8.60;99.90;;;;;;1958386;72;26973;-88
2024/04/14 07:53:06;;;;;;;5.00;0.73;;;8.60;99.90;;;;;;1973332;72;25278;-88
2024/04/14 07:55:55;;;;;;;5.97;0.40;;;8.70;99.90;;;;;;1909490;73;25658;-88
2024/04/14 07:58:43;;;;;;;1.37;0.43;;;8.80;99.90;;;;;;1901256;75;25182;-88
2024/04/14 08:01:33;;;;;;;0.87;0.73;;;8.80;99.90;;;;;;1915433;74;25707;-88
2024/04/14 08:04:22;;;;;;;2.40;0.60;;;9.10;99.90;;;;;;1913651;73;25242;-88
2024/04/14 08:07:10;;;;;;;2.10;0.70;;;9.10;99.90;;;;;;1878394;73;25260;-86
2024/04/14 08:12:44;;;;;;;1.30;0.43;;;9.60;99.90;;;;;;1954628;72;26976;-88
2024/04/14 08:15:33;;;;;;;5.93;1.10;;;9.40;99.90;;;;;;1923629;73;25239;-88
2024/04/14 08:21:02;;;;;;;2.20;1.00;;;9.70;99.90;;;;;;1951991;72;27019;-88
2024/04/14 08:23:52;;;;;;;0.87;0.67;;;9.70;99.90;;;;;;1906949;75;25269;-87
2024/04/14 08:26:41;;;;;;;4.03;1.20;;;9.60;99.90;;;;;;1947673;72;25579;-88
2024/04/14 08:32:09;;;;;;;5.73;2.77;;;10.00;99.90;;;;;;1944258;72;28285;-87
2024/04/14 08:34:59;;;;;;;1.70;1.17;;;10.00;99.90;;;;;;1915989;73;25165;-87
2024/04/14 08:37:48;;;;;;;3.30;1.37;;;10.20;99.90;;;;;;1899796;75;25219;-87
2024/04/14 08:40:37;;;;;;;4.13;2.57;;;10.10;99.90;;;;;;1897154;74;25171;-86
2024/04/14 08:43:25;;;;;;;3.43;2.40;;;10.10;99.90;;;;;;1911806;75;25219;-87
2024/04/14 08:46:16;;;;;;;4.57;2.43;;;10.00;99.90;;;;;;1908538;73;25765;-86
2024/04/14 08:49:06;;;;;;;4.63;3.00;;;9.80;99.90;;;;;;1910606;74;25341;-87
2024/04/14 08:51:56;;;;;;;4.93;1.83;;;10.50;99.90;;;;;;1896392;74;25297;-86
2024/04/14 08:54:46;;;;;;;6.10;2.23;;;10.40;99.90;;;;;;1914082;74;25323;-86
2024/04/14 08:57:35;;;;;;;3.37;1.40;;;10.20;99.90;;;;;;1904603;74;25255;-87
2024/04/14 09:03:02;;;;;;;3.80;2.77;;;10.50;99.90;;;;;;1931288;72;27114;-87
2024/04/14 09:05:52;;;;;;;3.93;2.17;;;10.50;99.90;;;;;;1857811;76;25296;-87
2024/04/14 09:08:41;;;;;;;5.30;2.90;;;10.50;99.90;;;;;;1896002;75;25735;-86
2024/04/14 09:14:08;;;;;;;6.13;1.70;;;11.10;99.90;;;;;;1944788;72;26958;-87
2024/04/14 09:16:57;;;;;;;4.27;2.17;;;10.90;99.90;;;;;;1939146;73;25272;-86
2024/04/14 09:19:45;;;;;;;5.03;2.50;;;10.70;99.90;;;;;;1931513;73;25314;-87
2024/04/14 09:22:33;;;;;;;4.03;2.30;;;10.50;99.90;;;;;;1934773;73;25213;-85
2024/04/14 09:25:23;;;;;;;5.17;3.30;;;10.70;99.90;;;;;;1929537;73;25205;-87
2024/04/14 09:28:12;;;;;;;7.03;2.50;;;10.80;99.90;;;;;;1927616;73;25314;-87
2024/04/14 09:31:00;;;;;;;6.97;3.43;;;10.70;99.90;;;;;;1941883;73;25245;-87
2024/04/14 09:33:50;;;;;;;3.37;1.97;;;10.80;99.90;;;;;;1918327;73;25694;-88
2024/04/14 09:36:38;;;;;;;7.37;1.50;;;10.70;99.90;;;;;;1938245;73;25339;-87
2024/04/14 09:42:08;;;;;;;5.57;3.20;;;10.70;99.90;;;;;;1946417;72;27025;-87
2024/04/14 09:47:43;;;;;;;2.43;2.00;;;10.60;99.90;;;;;;1971736;71;26992;-87
2024/04/14 09:53:12;;;;;;;3.47;1.97;;;10.60;99.90;;;;;;1932208;72;27029;-87
2024/04/14 09:56:01;;;;;;;4.37;2.53;;;10.80;99.90;;;;;;1868644;76;25689;-86
2024/04/14 09:58:49;;;;;;;3.57;2.17;;;11.00;99.90;;;;;;1840585;76;25293;-87
2024/04/14 10:01:41;;;;;;;3.90;2.70;;;11.30;99.90;;;;;;1867697;76;25245;-86
2024/04/14 10:04:30;;;;;;;2.60;1.83;;;11.10;99.90;;;;;;1862683;75;25907;-86
2024/04/14 10:07:19;;;;;;;5.77;3.07;;;11.30;99.90;;;;;;1851701;76;25198;-86
2024/04/14 10:10:09;;;;;;;3.17;1.77;;;11.60;99.90;;;;;;1855388;76;25799;-86
2024/04/14 10:12:58;;;;;;;3.77;3.20;;;12.00;99.90;;;;;;1854799;76;25790;-86
2024/04/14 10:15:56;;;;;;;5.43;2.87;;;11.90;99.90;;;;;;1863682;76;25684;-86
2024/04/14 10:18:46;;;;;;;8.17;3.07;;;12.00;99.90;;;;;;1851064;76;25319;-86
2024/04/14 10:24:15;;;;;;;4.30;2.40;;;11.80;99.90;;;;;;1946738;72;27110;-87
2024/04/14 10:29:57;;;;;;;5.10;3.50;;;11.80;99.90;;;;;;1944185;72;27117;-88
2024/04/14 10:35:27;;;;;;;2.00;0.87;;;11.40;99.90;;;;;;1957263;72;27068;-87
2024/04/14 10:38:22;;;;;;;0.53;0.53;;;11.40;99.90;;;;;;1904537;75;25373;-88
2024/04/14 10:43:51;;;;;;;1.63;1.00;;;11.30;99.90;;;;;;1927698;72;27064;-87
2024/04/14 10:46:39;;;;;;;1.53;1.00;;;11.40;99.90;;;;;;1928917;73;25803;-85
2024/04/14 10:49:28;;;;;;;0.57;0.57;;;11.40;99.90;;;;;;1909547;74;25225;-85
2024/04/14 10:52:17;;;;;;;1.70;0.40;;;11.40;99.90;;;;;;1857914;76;25707;-86
2024/04/14 10:55:06;;;;;;;0.50;0.50;;;11.30;99.90;;;;;;1824991;77;25283;-86
2024/04/14 10:57:55;;;;;;;0.50;0.50;;;11.20;99.90;;;;;;1910413;75;25825;-87
2024/04/14 11:00:43;;;;;;;0.40;0.40;;;11.10;99.90;;;;;;1903301;75;25795;-86
2024/04/14 11:06:17;;;;;;;0.30;0.30;;;10.70;99.90;;;;;;1921264;74;27093;-87
2024/04/14 11:09:07;;;;;;;0.70;0.20;;;10.60;99.90;;;;;;1869874;76;25292;-87
2024/04/14 11:14:39;;;;;;;0.30;0.23;;;10.80;99.90;;;;;;1956366;72;27027;-87
2024/04/14 11:17:29;;;;;;;0.27;0.27;;;10.80;99.90;;;;;;1882693;75;25313;-86
2024/04/14 11:20:17;;;;;;;1.50;0.20;;;10.70;99.90;;;;;;1885676;75;25927;-86
2024/04/14 11:23:07;;;;;;;1.07;0.30;;;10.80;99.90;;;;;;1915821;75;25213;-86
2024/04/14 11:25:58;;;;;;;0.20;0.20;;;10.60;99.90;;;;;;1899473;75;25230;-86
2024/04/14 11:28:47;;;;;;;2.00;0.20;;;10.60;99.90;;;;;;1886874;75;25232;-86
2024/04/14 11:34:18;;;;;;;0.20;0.20;;;10.40;99.90;;;;;;1929351;72;27057;-87
2024/04/14 11:37:08;;;;;;;0.10;0.10;;;10.40;99.90;;;;;;1900889;75;25217;-87
2024/04/14 11:39:57;;;;;;;0.17;0.17;;;10.40;99.90;;;;;;1858729;76;25696;-87
2024/04/14 11:42:46;;;;;;;0.30;0.30;;;10.10;99.90;;;;;;1860277;76;25264;-87
2024/04/14 11:45:37;;;;;;;0.20;0.20;;;10.00;99.90;;;;;;1929550;73;25231;-87
2024/04/14 11:51:10;;;;;;;0.20;0.20;;;9.90;99.90;;;;;;1923450;72;27036;-87
2024/04/14 11:56:39;;;;;;;0.30;0.30;;;9.50;99.90;;;;;;1954653;72;27623;-87
2024/04/14 11:59:28;;;;;;;0.10;0.10;;;9.00;99.90;;;;;;1905861;75;25254;-84
2024/04/14 12:02:17;;;;;;;0.30;0.30;;;8.60;99.90;;;;;;1906443;75;25243;-85
2024/04/14 12:05:07;;;;;;;0.20;0.20;;;8.60;99.90;;;;;;1912922;75;25722;-86
2024/04/14 12:07:55;;;;;;;0.20;0.20;;;8.40;99.90;;;;;;1911024;75;25755;-85
2024/04/14 12:10:43;;;;;;;0.30;0.20;;;8.40;99.90;;;;;;1912436;75;25354;-85
2024/04/14 12:13:32;;;;;;;0.20;0.20;;;8.40;99.90;;;;;;1895427;75;25647;-87
2024/04/14 12:16:21;;;;;;;0.10;0.10;;;8.50;99.90;;;;;;1887089;75;26515;-87
2024/04/14 12:19:10;;;;;;;0.20;0.20;;;8.40;99.90;;;;;;1833825;77;25250;-87
2024/04/14 12:21:59;;;;;;;0.10;0.10;;;8.30;99.90;;;;;;1897601;75;25246;-87
2024/04/14 12:24:47;;;;;;;0.10;0.10;;;8.20;99.90;;;;;;1909055;75;25704;-87
2024/04/14 12:27:35;;;;;;;0.20;0.20;;;8.20;99.90;;;;;;1894561;75;25279;-86
2024/04/14 12:33:04;;;;;;;0.10;0.10;;;8.00;99.90;;;;;;1944294;72;27519;-87
2024/04/14 12:35:53;;;;;;;0.10;0.10;;;7.90;99.90;;;;;;1932851;73;25142;-87
2024/04/14 12:38:42;;;;;;;0.13;0.13;;;7.80;99.90;;;;;;1937717;73;25233;-87
2024/04/14 12:41:30;;;;;;;0.20;0.20;;;7.70;99.90;;;;;;1882536;75;25341;-87
2024/04/14 12:44:19;;;;;;;0.20;0.20;;;7.70;99.90;;;;;;1840392;76;25194;-87
2024/04/14 12:47:07;;;;;;;0.20;0.20;;;7.70;99.90;;;;;;1858902;76;25201;-86
2024/04/14 12:49:56;;;;;;;0.10;0.10;;;7.50;99.90;;;;;;1819331;77;25242;-87
2024/04/14 12:52:45;;;;;;;0.93;0.20;;;7.30;99.90;;;;;;1840591;76;25248;-86
2024/04/14 12:55:33;;;;;;;0.20;0.20;;;6.90;99.90;;;;;;1818469;77;25291;-87
2024/04/14 12:58:21;;;;;;;0.20;0.20;;;6.70;99.90;;;;;;1824110;77;25322;-86
2024/04/14 13:01:10;;;;;;;0.10;0.10;;;6.60;99.90;;;;;;1832393;77;25870;-87
2024/04/14 13:03:58;;;;;;;0.77;0.47;;;6.40;99.90;;;;;;1818300;77;25730;-87
2024/04/14 13:09:27;;;;;;;0.17;0.17;;;6.40;99.90;;;;;;1946105;72;26986;-87
2024/04/14 13:12:16;;;;;;;0.13;0.13;;;6.30;99.90;;;;;;1886644;75;25297;-88
2024/04/14 13:15:06;;;;;;;0.30;0.30;;;6.20;99.90;;;;;;1900054;75;25322;-87
2024/04/14 13:17:54;;;;;;;0.20;0.20;;;6.10;99.90;;;;;;1898082;75;25253;-88
2024/04/14 13:20:43;;;;;;;0.20;0.20;;;6.00;99.90;;;;;;1914295;75;25662;-86
2024/04/14 13:23:32;;;;;;;0.20;0.20;;;5.90;99.90;;;;;;1885953;75;25239;-87
2024/04/14 13:28:59;;;;;;;0.33;0.33;;;5.80;99.90;;;;;;1926738;72;27024;-88
2024/04/14 13:31:47;;;;;;;0.20;0.20;;;5.80;99.90;;;;;;1905157;73;25772;-87
2024/04/14 13:34:36;;;;;;;0.23;0.23;;;5.70;99.90;;;;;;1915468;74;25742;-88
2024/04/14 13:37:25;;;;;;;0.23;0.23;;;5.70;99.90;;;;;;1899137;74;25731;-86
2024/04/14 13:40:13;;;;;;;0.30;0.30;;;5.70;99.90;;;;;;1931083;73;25328;-88
2024/04/14 13:45:42;;;;;;;1.07;0.37;;;5.80;99.90;;;;;;1932448;72;27128;-87
2024/04/14 13:48:32;;;;;;;0.43;0.43;;;5.80;99.90;;;;;;1907350;73;25289;-88
2024/04/14 13:54:05;;;;;;;0.30;0.30;;;5.90;99.90;;;;;;1949621;72;27133;-88
2024/04/14 13:59:33;;;;;;;0.30;0.30;;;6.10;99.90;;;;;;1912735;72;27134;-88
2024/04/14 14:02:21;;;;;;;0.30;0.30;;;6.30;99.90;;;;;;1909099;74;25235;-88
2024/04/14 14:05:10;;;;;;;0.30;0.30;;;6.50;99.90;;;;;;1911151;75;25266;-87
2024/04/14 14:07:59;;;;;;;0.33;0.33;;;6.70;99.90;;;;;;1896020;75;25754;-87
2024/04/14 14:10:48;;;;;;;0.23;0.23;;;6.90;99.90;;;;;;1916383;75;25254;-86
2024/04/14 14:13:36;;;;;;;0.27;0.27;;;7.00;99.90;;;;;;1912551;75;25258;-87
2024/04/14 14:19:14;;;;;;;0.43;0.40;;;7.40;99.90;;;;;;1948493;72;27525;-88
2024/04/14 14:22:02;;;;;;;0.30;0.30;;;7.40;99.90;;;;;;1931309;73;25179;-86
2024/04/14 14:27:37;;;;;;;2.03;0.20;;;7.50;99.90;;;;;;1960984;72;26961;-87
2024/04/14 14:30:26;;;;;;;0.30;0.30;;;7.40;99.90;;;;;;1917481;73;25242;-87
2024/04/14 14:39:01;;;;;;;0.13;0.13;;;7.50;99.90;;;;;;1941358;72;27033;-87
2024/04/14 14:41:50;;;;;;;0.17;0.13;;;7.60;99.90;;;;;;1889698;75;25237;-87
2024/04/14 14:44:39;;;;;;;0.20;0.20;;;7.60;99.90;;;;;;1893312;75;25634;-87
2024/04/14 14:47:29;;;;;;;0.40;0.40;;;7.70;99.90;;;;;;1915472;75;25170;-87
2024/04/14 14:50:18;;;;;;;0.40;0.37;;;7.70;99.90;;;;;;1903347;74;25169;-87
2024/04/14 14:53:07;;;;;;;0.30;0.30;;;7.70;99.90;;;;;;1904198;75;25193;-87
2024/04/14 14:55:56;;;;;;;0.30;0.30;;;7.70;99.90;;;;;;1878729;76;25563;-87
2024/04/14 15:01:34;;;;;;;0.37;0.33;;;8.00;99.90;;;;;;1968405;72;27447;-87
2024/04/14 15:04:22;;;;;;;0.40;0.40;;;8.00;99.90;;;;;;1929995;73;25774;-87
2024/04/14 15:07:11;;;;;;;0.20;0.20;;;8.00;99.90;;;;;;1936387;72;25745;-88
2024/04/14 15:12:44;;;;;;;0.20;0.20;;;8.10;99.90;;;;;;1940599;72;27118;-87
2024/04/14 15:15:32;;;;;;;0.20;0.20;;;8.20;99.90;;;;;;1944888;73;25294;-87
2024/04/14 15:18:20;;;;;;;0.40;0.40;;;8.20;99.90;;;;;;1916202;75;25299;-87
2024/04/14 15:21:09;;;;;;;0.20;0.20;;;8.30;99.90;;;;;;1916340;75;25241;-87
2024/04/14 15:23:59;;;;;;;0.20;0.20;;;8.40;99.90;;;;;;1945578;73;25222;-87
2024/04/14 15:26:47;;;;;;;0.93;0.37;;;8.70;99.90;;;;;;1927112;73;25257;-86
2024/04/14 15:29:37;;;;;;;1.20;0.20;;;8.90;99.90;;;;;;1919379;73;25172;-87
2024/04/14 15:32:25;;;;;;;0.30;0.30;;;8.80;99.90;;;;;;1940909;73;25782;-86
2024/04/14 15:35:14;;;;;;;0.10;0.10;;;8.90;99.90;;;;;;1921345;73;25673;-87
2024/04/14 15:38:03;;;;;;;0.40;0.20;;;8.90;99.90;;;;;;1916582;73;25662;-87
2024/04/14 15:40:52;;;;;;;0.20;0.20;;;8.80;99.90;;;;;;1916465;73;25251;-87
2024/04/14 15:43:42;;;;;;;0.40;0.40;;;8.80;99.90;;;;;;1922748;73;25301;-87
2024/04/14 15:46:31;;;;;;;0.20;0.20;;;8.80;99.90;;;;;;1921417;73;25203;-87
2024/04/14 15:49:20;;;;;;;0.20;0.20;;;8.70;99.90;;;;;;1930732;73;25336;-87
2024/04/14 15:54:48;;;;;;;0.30;0.30;;;8.70;99.90;;;;;;1919781;72;27123;-88
2024/04/14 16:00:17;;;;;;;0.20;0.20;;;8.60;99.90;;;;;;1944233;72;27040;-87
2024/04/14 16:03:06;;;;;;;0.33;0.33;;;8.60;99.90;;;;;;1879469;75;25254;-87
2024/04/14 16:05:58;;;;;;;4.20;0.40;;;8.60;99.90;;;;;;1870460;76;25793;-87
2024/04/14 16:12:00;;;;;;;0.97;0.50;;;8.60;99.90;;;;;;1988680;71;27064;-87
2024/04/14 16:14:52;;;;;;;0.30;0.30;;;8.70;99.90;;;;;;1932791;73;25229;-87
2024/04/14 16:17:40;;;;;;;0.30;0.30;;;8.70;99.90;;;;;;2017402;70;25289;-87
2024/04/14 16:20:29;;;;;;;0.30;0.30;;;8.70;99.90;;;;;;2024442;70;25260;-86
2024/04/14 16:23:17;;;;;;;0.20;0.20;;;8.70;99.90;;;;;;2017871;70;25803;-86
2024/04/14 16:26:05;;;;;;;0.23;0.23;;;8.70;99.90;;;;;;2011315;70;25668;-87
2024/04/14 16:28:55;;;;;;;0.53;0.50;;;8.70;99.90;;;;;;2023226;70;25179;-87
2024/04/14 16:31:44;;;;;;;0.40;0.40;;;8.70;99.90;;;;;;2015522;70;25627;-85
2024/04/14 16:34:32;;;;;;;0.57;0.20;;;8.70;99.90;;;;;;2008203;70;25133;-86
2024/04/14 16:40:05;;;;;;;0.23;0.23;;;8.80;99.90;;;;;;1933813;72;27093;-87
2024/04/14 16:42:53;;;;;;;0.30;0.30;;;8.90;99.90;;;;;;1866277;76;25748;-87
2024/04/14 16:48:26;;;;;;;0.30;0.30;;;8.90;99.90;;;;;;1939758;72;27110;-87
2024/04/14 16:51:15;;;;;;;0.37;0.37;;;8.90;99.90;;;;;;1854764;76;25326;-87
2024/04/14 16:54:03;;;;;;;0.20;0.20;;;8.90;99.90;;;;;;1852579;77;25206;-86
2024/04/14 16:59:31;;;;;;;0.20;0.20;;;8.90;99.90;;;;;;1934731;72;26808;-87
2024/04/14 17:02:19;;;;;;;0.20;0.20;;;8.80;99.90;;;;;;1871710;76;25273;-87
2024/04/14 17:05:09;;;;;;;0.30;0.30;;;8.80;99.90;;;;;;1826032;78;25203;-87
2024/04/14 17:07:57;;;;;;;0.90;0.30;;;8.80;99.90;;;;;;1928548;73;25968;-87
2024/04/14 17:10:46;;;;;;;0.40;0.40;;;8.70;99.90;;;;;;1889003;75;25222;-87
2024/04/14 17:13:35;;;;;;;0.30;0.30;;;8.60;99.90;;;;;;1849744;76;25761;-87
2024/04/14 17:19:07;;;;;;;0.60;0.60;;;8.40;99.90;;;;;;1932280;72;27074;-87
2024/04/14 17:24:36;;;;;;;0.40;0.40;;;8.30;99.90;;;;;;1945467;72;27571;-87
2024/04/14 17:27:25;;;;;;;0.30;0.30;;;8.20;99.90;;;;;;1892828;75;25244;-87
2024/04/14 17:30:13;;;;;;;0.50;0.50;;;8.20;99.90;;;;;;1905498;75;25256;-87
2024/04/14 17:33:02;;;;;;;0.33;0.30;;;8.20;99.90;;;;;;1888049;75;25343;-88
2024/04/14 17:35:50;;;;;;;0.30;0.30;;;8.20;99.90;;;;;;1911281;75;25283;-86
2024/04/14 17:38:38;;;;;;;2.27;0.43;;;8.10;99.90;;;;;;1900555;75;25618;-86
2024/04/14 17:41:27;;;;;;;0.40;0.40;;;8.00;99.90;;;;;;1894298;75;25299;-86